sensor_id;sensor_type;location;lat;lon;timestamp;P1;P2;P0
13030;PMS7003;6582;54.644;9.760;2023-04-25T00:00:03;104.4;98.1;
13030;PMS7003;6582;54.644;9.760;2023-04-25T00:05:03;119.2;115.2;
13030;PMS7003;6582;54.644;9.760;2023-04-25T00:15:07;149.2;146.6;
13030;PMS7003;6582;54.644;9.760;2023-04-25T00:20:07;181.6;180.7;
13030;PMS7003;6582;54.644;9.760;2023-04-25T00:25:02;188.0;187.0;
13030;PMS7003;6582;54.644;9.760;2023-04-25T00:30:06;194.6;193.3;
13030;PMS7003;6582;54.644;9.760;2023-04-25T00:35:01;189.3;188.1;
13030;PMS7003;6582;54.644;9.760;2023-04-25T00:40:16;192.2;191.1;
13030;PMS7003;6582;54.644;9.760;2023-04-25T00:45:03;157.4;155.0;
13030;PMS7003;6582;54.644;9.760;2023-04-25T00:50:01;136.9;133.4;
13030;PMS7003;6582;54.644;9.760;2023-04-25T00:55:02;99.1;95.8;
13030;PMS7003;6582;54.644;9.760;2023-04-25T01:00:02;91.7;85.6;
13030;PMS7003;6582;54.644;9.760;2023-04-25T01:05:02;53.1;45.6;
13030;PMS7003;6582;54.644;9.760;2023-04-25T01:10:01;43.6;37.6;
13030;PMS7003;6582;54.644;9.760;2023-04-25T01:15:07;40.6;35.9;
13030;PMS7003;6582;54.644;9.760;2023-04-25T01:20:03;43.7;38.8;
13030;PMS7003;6582;54.644;9.760;2023-04-25T01:25:07;25.2;23.5;
13030;PMS7003;6582;54.644;9.760;2023-04-25T01:30:02;13.0;12.8;
13030;PMS7003;6582;54.644;9.760;2023-04-25T01:35:02;13.8;13.4;
13030;PMS7003;6582;54.644;9.760;2023-04-25T01:40:01;20.5;18.5;
13030;PMS7003;6582;54.644;9.760;2023-04-25T01:45:07;18.5;16.6;
13030;PMS7003;6582;54.644;9.760;2023-04-25T01:50:02;18.4;16.6;
13030;PMS7003;6582;54.644;9.760;2023-04-25T02:00:07;35.9;33.0;
13030;PMS7003;6582;54.644;9.760;2023-04-25T02:05:02;52.1;47.3;
13030;PMS7003;6582;54.644;9.760;2023-04-25T02:10:01;56.4;51.4;
13030;PMS7003;6582;54.644;9.760;2023-04-25T02:15:02;62.4;56.7;
13030;PMS7003;6582;54.644;9.760;2023-04-25T02:20:02;68.5;62.1;
13030;PMS7003;6582;54.644;9.760;2023-04-25T02:25:02;66.4;58.6;
13030;PMS7003;6582;54.644;9.760;2023-04-25T02:30:01;58.7;51.9;
13030;PMS7003;6582;54.644;9.760;2023-04-25T02:35:01;41.7;36.5;
13030;PMS7003;6582;54.644;9.760;2023-04-25T02:40:02;40.4;35.8;
13030;PMS7003;6582;54.644;9.760;2023-04-25T02:45:02;35.2;31.2;
13030;PMS7003;6582;54.644;9.760;2023-04-25T02:50:01;20.3;19.0;
13030;PMS7003;6582;54.644;9.760;2023-04-25T02:55:07;11.4;11.2;
13030;PMS7003;6582;54.644;9.760;2023-04-25T03:00:03;10.9;10.8;
13030;PMS7003;6582;54.644;9.760;2023-04-25T03:05:01;7.9;7.9;
13030;PMS7003;6582;54.644;9.760;2023-04-25T03:10:02;10.5;10.5;
13030;PMS7003;6582;54.644;9.760;2023-04-25T03:20:02;10.0;10.0;
13030;PMS7003;6582;54.644;9.760;2023-04-25T03:25:02;9.1;9.1;
13030;PMS7003;6582;54.644;9.760;2023-04-25T03:30:01;10.8;10.8;
13030;PMS7003;6582;54.644;9.760;2023-04-25T03:35:06;8.1;8.1;
13030;PMS7003;6582;54.644;9.760;2023-04-25T03:40:06;5.8;5.8;
13030;PMS7003;6582;54.644;9.760;2023-04-25T03:45:02;9.0;9.0;
13030;PMS7003;6582;54.644;9.760;2023-04-25T03:50:06;8.0;8.0;
13030;PMS7003;6582;54.644;9.760;2023-04-25T03:55:07;4.6;4.6;
13030;PMS7003;6582;54.644;9.760;2023-04-25T04:00:02;4.6;4.6;
13030;PMS7003;6582;54.644;9.760;2023-04-25T04:10:02;3.4;3.4;
13030;PMS7003;6582;54.644;9.760;2023-04-25T04:25:02;4.9;4.5;
13030;PMS7003;6582;54.644;9.760;2023-04-25T04:30:01;8.2;7.7;
13030;PMS7003;6582;54.644;9.760;2023-04-25T04:35:07;9.0;8.6;
13030;PMS7003;6582;54.644;9.760;2023-04-25T04:40:13;9.1;8.6;
13030;PMS7003;6582;54.644;9.760;2023-04-25T04:45:07;8.8;8.3;
13030;PMS7003;6582;54.644;9.760;2023-04-25T04:50:11;4.5;4.5;
13030;PMS7003;6582;54.644;9.760;2023-04-25T07:05:02;3.4;3.4;
13030;PMS7003;6582;54.644;9.760;2023-04-25T07:10:01;3.8;3.8;
13030;PMS7003;6582;54.644;9.760;2023-04-25T07:15:01;5.8;5.8;
13030;PMS7003;6582;54.644;9.760;2023-04-25T07:30:02;5.7;5.7;
13030;PMS7003;6582;54.644;9.760;2023-04-25T07:35:01;2.4;2.4;
13030;PMS7003;6582;54.644;9.760;2023-04-25T07:40:02;2.0;2.0;
13030;PMS7003;6582;54.644;9.760;2023-04-25T09:10:02;1.7;1.7;
13030;PMS7003;6582;54.644;9.760;2023-04-25T09:15:04;12.0;10.9;
13030;PMS7003;6582;54.644;9.760;2023-04-25T09:20:05;19.3;17.8;
13030;PMS7003;6582;54.644;9.760;2023-04-25T09:25:02;21.2;19.8;
13030;PMS7003;6582;54.644;9.760;2023-04-25T09:30:01;22.3;20.8;
13030;PMS7003;6582;54.644;9.760;2023-04-25T09:40:04;20.9;19.4;
13030;PMS7003;6582;54.644;9.760;2023-04-25T09:45:02;15.0;14.6;
13030;PMS7003;6582;54.644;9.760;2023-04-25T09:50:01;7.7;7.7;
13030;PMS7003;6582;54.644;9.760;2023-04-25T09:55:01;5.8;5.8;
13030;PMS7003;6582;54.644;9.760;2023-04-25T10:00:01;4.7;4.7;
13030;PMS7003;6582;54.644;9.760;2023-04-25T10:05:05;4.6;4.6;
13030;PMS7003;6582;54.644;9.760;2023-04-25T10:10:03;1.9;1.9;
13030;PMS7003;6582;54.644;9.760;2023-04-25T10:15:02;23.2;23.0;
13030;PMS7003;6582;54.644;9.760;2023-04-25T10:25:07;27.2;26.9;
13030;PMS7003;6582;54.644;9.760;2023-04-25T10:30:03;39.8;37.6;
13030;PMS7003;6582;54.644;9.760;2023-04-25T10:55:02;69.6;59.2;
13030;PMS7003;6582;54.644;9.760;2023-04-25T11:00:09;35.6;30.4;
13030;PMS7003;6582;54.644;9.760;2023-04-25T11:05:07;27.1;23.6;
13030;PMS7003;6582;54.644;9.760;2023-04-25T11:10:03;20.3;17.7;
13030;PMS7003;6582;54.644;9.760;2023-04-25T11:15:03;16.2;14.2;
13030;PMS7003;6582;54.644;9.760;2023-04-25T11:45:06;5.8;5.8;
13030;PMS7003;6582;54.644;9.760;2023-04-25T11:50:02;6.0;6.0;
13030;PMS7003;6582;54.644;9.760;2023-04-25T11:55:07;8.4;8.4;
13030;PMS7003;6582;54.644;9.760;2023-04-25T12:00:05;16.6;16.2;
13030;PMS7003;6582;54.644;9.760;2023-04-25T12:05:15;29.8;26.9;
13030;PMS7003;6582;54.644;9.760;2023-04-25T12:10:05;31.9;29.0;
13030;PMS7003;6582;54.644;9.760;2023-04-25T12:45:01;13.5;12.6;
13030;PMS7003;6582;54.644;9.760;2023-04-25T12:50:02;10.1;9.5;
13030;PMS7003;6582;54.644;9.760;2023-04-25T12:55:06;8.1;7.6;
13030;PMS7003;6582;54.644;9.760;2023-04-25T13:00:01;6.8;6.2;
13030;PMS7003;6582;54.644;9.760;2023-04-25T13:15:01;11.6;10.0;
13030;PMS7003;6582;54.644;9.760;2023-04-25T13:20:07;22.6;19.7;
13030;PMS7003;6582;54.644;9.760;2023-04-25T13:25:06;37.1;32.0;
13030;PMS7003;6582;54.644;9.760;2023-04-25T13:30:01;47.4;41.2;
13030;PMS7003;6582;54.644;9.760;2023-04-25T13:35:11;59.2;51.4;
13030;PMS7003;6582;54.644;9.760;2023-04-25T13:45:01;49.4;43.0;
13030;PMS7003;6582;54.644;9.760;2023-04-25T13:50:01;36.4;32.2;
13030;PMS7003;6582;54.644;9.760;2023-04-25T13:55:02;31.5;28.2;
13030;PMS7003;6582;54.644;9.760;2023-04-25T14:00:01;19.7;18.0;
13030;PMS7003;6582;54.644;9.760;2023-04-25T14:05:02;8.2;8.0;
13030;PMS7003;6582;54.644;9.760;2023-04-25T14:10:07;6.9;6.7;
13030;PMS7003;6582;54.644;9.760;2023-04-25T14:15:01;5.4;5.2;
13030;PMS7003;6582;54.644;9.760;2023-04-25T15:20:07;13.1;11.3;
13030;PMS7003;6582;54.644;9.760;2023-04-25T15:25:07;17.5;15.6;
13030;PMS7003;6582;54.644;9.760;2023-04-25T15:30:01;32.8;29.4;
13030;PMS7003;6582;54.644;9.760;2023-04-25T15:35:02;44.1;39.2;
13030;PMS7003;6582;54.644;9.760;2023-04-25T15:40:03;49.4;44.6;
13030;PMS7003;6582;54.644;9.760;2023-04-25T15:45:05;46.6;42.5;
13030;PMS7003;6582;54.644;9.760;2023-04-25T15:50:03;46.0;41.8;
13030;PMS7003;6582;54.644;9.760;2023-04-25T15:55:02;38.8;35.7;
13030;PMS7003;6582;54.644;9.760;2023-04-25T16:00:02;33.8;32.1;
13030;PMS7003;6582;54.644;9.760;2023-04-25T16:05:07;33.0;31.4;
13030;PMS7003;6582;54.644;9.760;2023-04-25T16:10:01;22.8;22.2;
13030;PMS7003;6582;54.644;9.760;2023-04-25T16:15:06;19.3;18.7;
13030;PMS7003;6582;54.644;9.760;2023-04-25T16:20:01;11.2;11.2;
13030;PMS7003;6582;54.644;9.760;2023-04-25T16:25:02;4.9;4.9;
13030;PMS7003;6582;54.644;9.760;2023-04-25T17:10:02;9.9;9.0;
13030;PMS7003;6582;54.644;9.760;2023-04-25T17:15:06;16.6;15.2;
13030;PMS7003;6582;54.644;9.760;2023-04-25T17:20:01;16.2;14.8;
13030;PMS7003;6582;54.644;9.760;2023-04-25T17:25:02;16.5;15.1;
13030;PMS7003;6582;54.644;9.760;2023-04-25T17:30:02;18.4;17.0;
13030;PMS7003;6582;54.644;9.760;2023-04-25T17:35:11;10.2;9.8;
13030;PMS7003;6582;54.644;9.760;2023-04-25T17:50:02;3.4;3.4;
13030;PMS7003;6582;54.644;9.760;2023-04-25T17:55:01;7.8;7.8;
13030;PMS7003;6582;54.644;9.760;2023-04-25T18:00:02;6.8;6.7;
13030;PMS7003;6582;54.644;9.760;2023-04-25T18:10:02;6.7;6.6;
13030;PMS7003;6582;54.644;9.760;2023-04-25T18:15:01;6.3;6.3;
13030;PMS7003;6582;54.644;9.760;2023-04-25T18:45:02;14.0;12.5;
13030;PMS7003;6582;54.644;9.760;2023-04-25T18:50:01;13.8;12.3;
13030;PMS7003;6582;54.644;9.760;2023-04-25T19:00:02;13.8;12.3;
13030;PMS7003;6582;54.644;9.760;2023-04-25T19:05:02;12.0;10.5;
